sensor_id;sensor_type;location;lat;lon;timestamp;P1;durP1;ratioP1;P2;durP2;ratioP2
61397;SDS011;47267;48.130;-2.040;2022-08-19T00:01:35;7.43;;;5.47;;
61397;SDS011;47267;48.130;-2.040;2022-08-19T00:04:04;7.68;;;5.60;;
61397;SDS011;47267;48.130;-2.040;2022-08-19T00:06:33;7.70;;;5.90;;
61397;SDS011;47267;48.130;-2.040;2022-08-19T00:09:00;6.85;;;5.32;;
61397;SDS011;47267;48.130;-2.040;2022-08-19T00:11:27;7.22;;;5.78;;
61397;SDS011;47267;48.130;-2.040;2022-08-19T00:13:56;6.88;;;5.28;;
61397;SDS011;47267;48.130;-2.040;2022-08-19T00:16:26;6.70;;;5.07;;
61397;SDS011;47267;48.130;-2.040;2022-08-19T00:18:51;8.57;;;5.50;;
61397;SDS011;47267;48.130;-2.040;2022-08-19T00:21:22;7.97;;;5.85;;
61397;SDS011;47267;48.130;-2.040;2022-08-19T00:23:49;6.05;;;5.45;;
61397;SDS011;47267;48.130;-2.040;2022-08-19T00:26:15;5.65;;;5.05;;
61397;SDS011;47267;48.130;-2.040;2022-08-19T00:28:41;6.13;;;4.93;;
61397;SDS011;47267;48.130;-2.040;2022-08-19T00:31:08;7.10;;;4.75;;
61397;SDS011;47267;48.130;-2.040;2022-08-19T00:33:34;6.32;;;4.90;;
61397;SDS011;47267;48.130;-2.040;2022-08-19T00:36:07;6.50;;;5.22;;
61397;SDS011;47267;48.130;-2.040;2022-08-19T00:38:34;5.38;;;4.80;;
61397;SDS011;47267;48.130;-2.040;2022-08-19T00:41:01;5.82;;;4.70;;
61397;SDS011;47267;48.130;-2.040;2022-08-19T00:43:27;6.10;;;4.80;;
61397;SDS011;47267;48.130;-2.040;2022-08-19T00:45:53;5.72;;;4.90;;
61397;SDS011;47267;48.130;-2.040;2022-08-19T00:48:19;6.57;;;4.63;;
61397;SDS011;47267;48.130;-2.040;2022-08-19T00:50:48;5.63;;;4.68;;
61397;SDS011;47267;48.130;-2.040;2022-08-19T00:53:20;6.07;;;4.53;;
61397;SDS011;47267;48.130;-2.040;2022-08-19T00:55:50;5.72;;;4.40;;
61397;SDS011;47267;48.130;-2.040;2022-08-19T00:58:19;4.80;;;4.10;;
61397;SDS011;47267;48.130;-2.040;2022-08-19T01:00:46;5.47;;;4.30;;
61397;SDS011;47267;48.130;-2.040;2022-08-19T01:03:20;6.75;;;3.92;;
61397;SDS011;47267;48.130;-2.040;2022-08-19T01:05:46;5.70;;;4.15;;
61397;SDS011;47267;48.130;-2.040;2022-08-19T01:08:14;6.50;;;3.88;;
61397;SDS011;47267;48.130;-2.040;2022-08-19T01:10:43;4.63;;;3.90;;
61397;SDS011;47267;48.130;-2.040;2022-08-19T01:13:13;7.50;;;4.55;;
61397;SDS011;47267;48.130;-2.040;2022-08-19T01:15:42;6.10;;;4.47;;
61397;SDS011;47267;48.130;-2.040;2022-08-19T01:18:29;5.07;;;4.03;;
61397;SDS011;47267;48.130;-2.040;2022-08-19T01:21:04;4.05;;;3.58;;
61397;SDS011;47267;48.130;-2.040;2022-08-19T01:23:39;4.55;;;3.88;;
61397;SDS011;47267;48.130;-2.040;2022-08-19T01:26:20;4.82;;;4.10;;
61397;SDS011;47267;48.130;-2.040;2022-08-19T01:28:48;4.40;;;3.40;;
61397;SDS011;47267;48.130;-2.040;2022-08-19T01:31:17;5.30;;;3.67;;
61397;SDS011;47267;48.130;-2.040;2022-08-19T01:33:46;3.63;;;3.15;;
61397;SDS011;47267;48.130;-2.040;2022-08-19T01:36:14;4.55;;;3.60;;
61397;SDS011;47267;48.130;-2.040;2022-08-19T01:38:47;4.03;;;3.45;;
61397;SDS011;47267;48.130;-2.040;2022-08-19T01:41:14;5.95;;;3.58;;
61397;SDS011;47267;48.130;-2.040;2022-08-19T01:43:42;4.63;;;3.45;;
61397;SDS011;47267;48.130;-2.040;2022-08-19T01:46:08;3.80;;;3.22;;
61397;SDS011;47267;48.130;-2.040;2022-08-19T01:48:35;5.57;;;3.40;;
61397;SDS011;47267;48.130;-2.040;2022-08-19T01:51:03;5.03;;;3.30;;
61397;SDS011;47267;48.130;-2.040;2022-08-19T01:53:30;4.40;;;3.20;;
61397;SDS011;47267;48.130;-2.040;2022-08-19T01:55:56;4.18;;;3.40;;
61397;SDS011;47267;48.130;-2.040;2022-08-19T01:58:22;3.72;;;2.88;;
61397;SDS011;47267;48.130;-2.040;2022-08-19T02:00:55;3.50;;;2.70;;
61397;SDS011;47267;48.130;-2.040;2022-08-19T02:03:21;3.95;;;3.10;;
61397;SDS011;47267;48.130;-2.040;2022-08-19T02:05:47;3.92;;;2.90;;
61397;SDS011;47267;48.130;-2.040;2022-08-19T02:08:25;3.90;;;2.60;;
61397;SDS011;47267;48.130;-2.040;2022-08-19T02:10:52;3.42;;;2.70;;
61397;SDS011;47267;48.130;-2.040;2022-08-19T02:13:19;3.20;;;2.88;;
61397;SDS011;47267;48.130;-2.040;2022-08-19T02:15:45;3.60;;;3.00;;
61397;SDS011;47267;48.130;-2.040;2022-08-19T02:18:13;4.20;;;2.90;;
61397;SDS011;47267;48.130;-2.040;2022-08-19T02:20:40;3.72;;;2.90;;
61397;SDS011;47267;48.130;-2.040;2022-08-19T02:23:06;4.20;;;2.95;;
61397;SDS011;47267;48.130;-2.040;2022-08-19T02:25:32;3.50;;;3.05;;
61397;SDS011;47267;48.130;-2.040;2022-08-19T02:27:58;3.67;;;2.47;;
61397;SDS011;47267;48.130;-2.040;2022-08-19T02:30:24;3.60;;;2.75;;
61397;SDS011;47267;48.130;-2.040;2022-08-19T02:33:03;3.58;;;2.95;;
61397;SDS011;47267;48.130;-2.040;2022-08-19T02:35:30;3.38;;;2.70;;
61397;SDS011;47267;48.130;-2.040;2022-08-19T02:37:56;3.35;;;2.53;;
61397;SDS011;47267;48.130;-2.040;2022-08-19T02:40:40;3.83;;;2.60;;
61397;SDS011;47267;48.130;-2.040;2022-08-19T02:43:14;4.40;;;2.70;;
61397;SDS011;47267;48.130;-2.040;2022-08-19T02:45:40;2.90;;;2.60;;
61397;SDS011;47267;48.130;-2.040;2022-08-19T02:48:06;4.40;;;2.78;;
61397;SDS011;47267;48.130;-2.040;2022-08-19T02:50:36;3.17;;;2.28;;
61397;SDS011;47267;48.130;-2.040;2022-08-19T02:53:05;2.75;;;2.30;;
61397;SDS011;47267;48.130;-2.040;2022-08-19T02:55:33;3.60;;;2.58;;
61397;SDS011;47267;48.130;-2.040;2022-08-19T02:57:59;3.00;;;2.25;;
61397;SDS011;47267;48.130;-2.040;2022-08-19T03:00:26;2.85;;;2.38;;
61397;SDS011;47267;48.130;-2.040;2022-08-19T03:02:58;3.40;;;2.38;;
61397;SDS011;47267;48.130;-2.040;2022-08-19T03:05:25;2.85;;;2.30;;
61397;SDS011;47267;48.130;-2.040;2022-08-19T03:07:52;3.42;;;2.20;;
61397;SDS011;47267;48.130;-2.040;2022-08-19T03:10:18;2.47;;;1.90;;
61397;SDS011;47267;48.130;-2.040;2022-08-19T03:12:43;2.63;;;2.20;;
61397;SDS011;47267;48.130;-2.040;2022-08-19T03:15:11;2.90;;;2.20;;
61397;SDS011;47267;48.130;-2.040;2022-08-19T03:17:49;2.58;;;2.17;;
61397;SDS011;47267;48.130;-2.040;2022-08-19T03:20:15;3.05;;;2.20;;
61397;SDS011;47267;48.130;-2.040;2022-08-19T03:22:40;2.78;;;2.05;;
61397;SDS011;47267;48.130;-2.040;2022-08-19T03:25:06;2.03;;;1.83;;
61397;SDS011;47267;48.130;-2.040;2022-08-19T03:27:32;3.35;;;2.10;;
61397;SDS011;47267;48.130;-2.040;2022-08-19T03:29:58;3.50;;;2.00;;
61397;SDS011;47267;48.130;-2.040;2022-08-19T03:32:24;2.95;;;2.00;;
61397;SDS011;47267;48.130;-2.040;2022-08-19T03:34:50;3.25;;;2.15;;
61397;SDS011;47267;48.130;-2.040;2022-08-19T03:37:17;2.60;;;1.67;;
61397;SDS011;47267;48.130;-2.040;2022-08-19T03:39:42;2.35;;;1.75;;
61397;SDS011;47267;48.130;-2.040;2022-08-19T03:42:08;2.33;;;1.80;;
61397;SDS011;47267;48.130;-2.040;2022-08-19T03:44:35;2.30;;;1.73;;
61397;SDS011;47267;48.130;-2.040;2022-08-19T03:47:02;2.35;;;1.60;;
61397;SDS011;47267;48.130;-2.040;2022-08-19T03:49:30;2.25;;;1.80;;
61397;SDS011;47267;48.130;-2.040;2022-08-19T03:51:58;2.70;;;1.63;;
61397;SDS011;47267;48.130;-2.040;2022-08-19T03:54:29;3.25;;;2.22;;
61397;SDS011;47267;48.130;-2.040;2022-08-19T03:56:55;2.25;;;1.95;;
61397;SDS011;47267;48.130;-2.040;2022-08-19T03:59:29;2.95;;;1.90;;
61397;SDS011;47267;48.130;-2.040;2022-08-19T04:02:01;2.70;;;1.73;;
61397;SDS011;47267;48.130;-2.040;2022-08-19T04:04:42;3.08;;;1.70;;
61397;SDS011;47267;48.130;-2.040;2022-08-19T04:07:08;2.08;;;1.50;;
61397;SDS011;47267;48.130;-2.040;2022-08-19T04:09:41;2.20;;;1.80;;
61397;SDS011;47267;48.130;-2.040;2022-08-19T04:12:07;1.98;;;1.63;;
61397;SDS011;47267;48.130;-2.040;2022-08-19T04:14:33;2.95;;;1.77;;
61397;SDS011;47267;48.130;-2.040;2022-08-19T04:17:00;2.08;;;1.60;;
61397;SDS011;47267;48.130;-2.040;2022-08-19T04:19:29;2.30;;;1.58;;
61397;SDS011;47267;48.130;-2.040;2022-08-19T04:21:56;2.40;;;1.55;;
61397;SDS011;47267;48.130;-2.040;2022-08-19T04:24:22;1.77;;;1.40;;
61397;SDS011;47267;48.130;-2.040;2022-08-19T04:26:48;1.52;;;1.40;;
61397;SDS011;47267;48.130;-2.040;2022-08-19T04:29:18;1.48;;;1.35;;
61397;SDS011;47267;48.130;-2.040;2022-08-19T04:31:50;1.88;;;1.30;;
61397;SDS011;47267;48.130;-2.040;2022-08-19T04:34:19;2.55;;;1.50;;
61397;SDS011;47267;48.130;-2.040;2022-08-19T04:36:53;2.80;;;1.50;;
61397;SDS011;47267;48.130;-2.040;2022-08-19T04:39:21;1.85;;;1.40;;
61397;SDS011;47267;48.130;-2.040;2022-08-19T04:42:10;1.98;;;1.40;;
61397;SDS011;47267;48.130;-2.040;2022-08-19T04:45:13;2.00;;;1.58;;
61397;SDS011;47267;48.130;-2.040;2022-08-19T04:47:41;1.85;;;1.25;;
61397;SDS011;47267;48.130;-2.040;2022-08-19T04:50:09;2.05;;;1.52;;
61397;SDS011;47267;48.130;-2.040;2022-08-19T04:52:44;1.58;;;1.35;;
61397;SDS011;47267;48.130;-2.040;2022-08-19T04:55:13;2.78;;;1.33;;
61397;SDS011;47267;48.130;-2.040;2022-08-19T04:57:39;2.35;;;1.40;;
61397;SDS011;47267;48.130;-2.040;2022-08-19T05:00:11;1.45;;;1.23;;
61397;SDS011;47267;48.130;-2.040;2022-08-19T05:02:37;1.77;;;1.48;;
61397;SDS011;47267;48.130;-2.040;2022-08-19T05:05:04;2.25;;;1.30;;
61397;SDS011;47267;48.130;-2.040;2022-08-19T05:07:34;2.35;;;1.50;;
61397;SDS011;47267;48.130;-2.040;2022-08-19T05:10:00;1.88;;;1.00;;
61397;SDS011;47267;48.130;-2.040;2022-08-19T05:12:27;2.47;;;1.33;;
61397;SDS011;47267;48.130;-2.040;2022-08-19T05:14:53;1.65;;;1.30;;
61397;SDS011;47267;48.130;-2.040;2022-08-19T05:17:21;2.03;;;1.30;;
61397;SDS011;47267;48.130;-2.040;2022-08-19T05:19:47;1.60;;;1.27;;
61397;SDS011;47267;48.130;-2.040;2022-08-19T05:22:31;1.52;;;1.17;;
61397;SDS011;47267;48.130;-2.040;2022-08-19T05:25:00;1.50;;;1.20;;
61397;SDS011;47267;48.130;-2.040;2022-08-19T05:27:30;2.50;;;1.50;;
61397;SDS011;47267;48.130;-2.040;2022-08-19T05:29:59;2.88;;;1.40;;
61397;SDS011;47267;48.130;-2.040;2022-08-19T05:32:26;2.63;;;1.30;;
61397;SDS011;47267;48.130;-2.040;2022-08-19T05:34:55;2.30;;;1.20;;
61397;SDS011;47267;48.130;-2.040;2022-08-19T05:37:22;2.10;;;1.40;;
61397;SDS011;47267;48.130;-2.040;2022-08-19T05:39:51;2.80;;;1.30;;
61397;SDS011;47267;48.130;-2.040;2022-08-19T05:42:17;2.10;;;1.30;;
61397;SDS011;47267;48.130;-2.040;2022-08-19T05:44:45;2.25;;;1.27;;
61397;SDS011;47267;48.130;-2.040;2022-08-19T05:47:12;3.03;;;1.30;;
61397;SDS011;47267;48.130;-2.040;2022-08-19T05:49:45;2.72;;;1.50;;
61397;SDS011;47267;48.130;-2.040;2022-08-19T05:52:12;3.05;;;1.42;;
61397;SDS011;47267;48.130;-2.040;2022-08-19T05:54:40;2.50;;;1.45;;
61397;SDS011;47267;48.130;-2.040;2022-08-19T05:57:08;2.58;;;1.42;;
61397;SDS011;47267;48.130;-2.040;2022-08-19T05:59:34;2.20;;;1.55;;
61397;SDS011;47267;48.130;-2.040;2022-08-19T06:02:03;2.28;;;1.40;;
61397;SDS011;47267;48.130;-2.040;2022-08-19T06:04:34;3.10;;;1.35;;
61397;SDS011;47267;48.130;-2.040;2022-08-19T06:06:59;2.72;;;1.20;;
61397;SDS011;47267;48.130;-2.040;2022-08-19T06:09:26;2.05;;;1.40;;
61397;SDS011;47267;48.130;-2.040;2022-08-19T06:11:56;1.45;;;1.05;;
61397;SDS011;47267;48.130;-2.040;2022-08-19T06:14:26;1.80;;;1.35;;
61397;SDS011;47267;48.130;-2.040;2022-08-19T06:16:54;1.73;;;1.23;;
61397;SDS011;47267;48.130;-2.040;2022-08-19T06:19:21;1.73;;;1.33;;
61397;SDS011;47267;48.130;-2.040;2022-08-19T06:21:52;1.60;;;1.10;;
61397;SDS011;47267;48.130;-2.040;2022-08-19T06:24:19;2.13;;;1.30;;
61397;SDS011;47267;48.130;-2.040;2022-08-19T06:26:49;1.95;;;1.27;;
61397;SDS011;47267;48.130;-2.040;2022-08-19T06:29:19;2.17;;;1.30;;
61397;SDS011;47267;48.130;-2.040;2022-08-19T06:31:49;2.35;;;1.10;;
61397;SDS011;47267;48.130;-2.040;2022-08-19T06:34:16;1.77;;;1.10;;
61397;SDS011;47267;48.130;-2.040;2022-08-19T06:36:45;3.00;;;1.30;;
61397;SDS011;47267;48.130;-2.040;2022-08-19T06:39:17;1.92;;;1.30;;
61397;SDS011;47267;48.130;-2.040;2022-08-19T06:41:51;3.35;;;1.30;;
61397;SDS011;47267;48.130;-2.040;2022-08-19T06:44:22;2.42;;;1.30;;
61397;SDS011;47267;48.130;-2.040;2022-08-19T06:46:50;2.08;;;1.20;;
61397;SDS011;47267;48.130;-2.040;2022-08-19T06:49:19;2.70;;;1.20;;
61397;SDS011;47267;48.130;-2.040;2022-08-19T06:51:46;2.08;;;1.20;;
61397;SDS011;47267;48.130;-2.040;2022-08-19T06:54:13;1.65;;;1.20;;
61397;SDS011;47267;48.130;-2.040;2022-08-19T06:56:39;1.95;;;1.33;;
61397;SDS011;47267;48.130;-2.040;2022-08-19T06:59:06;3.50;;;1.50;;
61397;SDS011;47267;48.130;-2.040;2022-08-19T07:01:43;3.53;;;1.30;;
61397;SDS011;47267;48.130;-2.040;2022-08-19T07:04:12;1.92;;;1.27;;
61397;SDS011;47267;48.130;-2.040;2022-08-19T07:06:40;2.20;;;1.30;;
61397;SDS011;47267;48.130;-2.040;2022-08-19T07:09:08;3.35;;;1.33;;
61397;SDS011;47267;48.130;-2.040;2022-08-19T07:11:35;1.60;;;1.27;;
61397;SDS011;47267;48.130;-2.040;2022-08-19T07:14:01;3.40;;;1.48;;
61397;SDS011;47267;48.130;-2.040;2022-08-19T07:16:28;2.58;;;1.30;;
61397;SDS011;47267;48.130;-2.040;2022-08-19T07:18:55;2.08;;;1.30;;
61397;SDS011;47267;48.130;-2.040;2022-08-19T07:21:23;3.90;;;1.30;;
61397;SDS011;47267;48.130;-2.040;2022-08-19T07:23:54;1.92;;;1.15;;
61397;SDS011;47267;48.130;-2.040;2022-08-19T07:26:22;2.53;;;1.13;;
61397;SDS011;47267;48.130;-2.040;2022-08-19T07:28:50;2.30;;;1.20;;
61397;SDS011;47267;48.130;-2.040;2022-08-19T07:31:24;2.25;;;1.33;;
61397;SDS011;47267;48.130;-2.040;2022-08-19T07:33:51;2.60;;;1.38;;
61397;SDS011;47267;48.130;-2.040;2022-08-19T07:36:23;2.30;;;1.50;;
61397;SDS011;47267;48.130;-2.040;2022-08-19T07:38:57;2.60;;;1.40;;
61397;SDS011;47267;48.130;-2.040;2022-08-19T07:41:25;2.78;;;1.40;;
61397;SDS011;47267;48.130;-2.040;2022-08-19T07:43:53;1.40;;;1.10;;
61397;SDS011;47267;48.130;-2.040;2022-08-19T07:46:20;2.00;;;1.33;;
61397;SDS011;47267;48.130;-2.040;2022-08-19T07:49:54;2.55;;;1.50;;
61397;SDS011;47267;48.130;-2.040;2022-08-19T07:52:20;2.65;;;1.70;;
61397;SDS011;47267;48.130;-2.040;2022-08-19T07:54:46;3.25;;;1.23;;
61397;SDS011;47267;48.130;-2.040;2022-08-19T07:57:11;3.05;;;1.55;;
61397;SDS011;47267;48.130;-2.040;2022-08-19T07:59:37;2.45;;;1.30;;
61397;SDS011;47267;48.130;-2.040;2022-08-19T08:02:03;3.10;;;1.38;;
61397;SDS011;47267;48.130;-2.040;2022-08-19T08:04:30;2.97;;;1.52;;
61397;SDS011;47267;48.130;-2.040;2022-08-19T08:07:15;2.78;;;1.35;;
61397;SDS011;47267;48.130;-2.040;2022-08-19T08:10:00;2.80;;;1.45;;
61397;SDS011;47267;48.130;-2.040;2022-08-19T08:12:28;4.03;;;1.58;;
61397;SDS011;47267;48.130;-2.040;2022-08-19T08:14:58;3.42;;;1.50;;
61397;SDS011;47267;48.130;-2.040;2022-08-19T08:17:30;3.58;;;1.50;;
61397;SDS011;47267;48.130;-2.040;2022-08-19T08:19:56;3.45;;;1.75;;
61397;SDS011;47267;48.130;-2.040;2022-08-19T08:22:23;1.85;;;1.20;;
61397;SDS011;47267;48.130;-2.040;2022-08-19T08:25:09;4.05;;;1.58;;
61397;SDS011;47267;48.130;-2.040;2022-08-19T08:27:40;6.97;;;2.20;;
61397;SDS011;47267;48.130;-2.040;2022-08-19T08:30:11;4.40;;;2.03;;
61397;SDS011;47267;48.130;-2.040;2022-08-19T08:32:39;3.50;;;1.55;;
61397;SDS011;47267;48.130;-2.040;2022-08-19T08:35:07;9.82;;;1.83;;
61397;SDS011;47267;48.130;-2.040;2022-08-19T08:37:34;5.30;;;1.92;;
61397;SDS011;47267;48.130;-2.040;2022-08-19T08:40:08;6.38;;;2.03;;
61397;SDS011;47267;48.130;-2.040;2022-08-19T08:42:46;10.00;;;2.08;;
61397;SDS011;47267;48.130;-2.040;2022-08-19T08:45:19;6.70;;;2.00;;
61397;SDS011;47267;48.130;-2.040;2022-08-19T08:47:47;4.88;;;2.05;;
61397;SDS011;47267;48.130;-2.040;2022-08-19T08:50:24;5.90;;;2.00;;
61397;SDS011;47267;48.130;-2.040;2022-08-19T08:52:57;5.85;;;1.80;;
61397;SDS011;47267;48.130;-2.040;2022-08-19T08:55:25;6.13;;;2.10;;
61397;SDS011;47267;48.130;-2.040;2022-08-19T08:57:55;6.30;;;1.80;;
61397;SDS011;47267;48.130;-2.040;2022-08-19T09:00:32;8.90;;;1.90;;
61397;SDS011;47267;48.130;-2.040;2022-08-19T09:03:00;3.03;;;1.63;;
61397;SDS011;47267;48.130;-2.040;2022-08-19T09:05:31;6.68;;;2.00;;
61397;SDS011;47267;48.130;-2.040;2022-08-19T09:08:10;5.57;;;2.10;;
61397;SDS011;47267;48.130;-2.040;2022-08-19T09:10:44;5.72;;;2.33;;
61397;SDS011;47267;48.130;-2.040;2022-08-19T09:16:02;5.13;;;1.40;;
61397;SDS011;47267;48.130;-2.040;2022-08-19T09:18:38;5.53;;;1.77;;
61397;SDS011;47267;48.130;-2.040;2022-08-19T09:21:13;6.93;;;1.93;;
61397;SDS011;47267;48.130;-2.040;2022-08-19T09:23:40;3.92;;;1.45;;
61397;SDS011;47267;48.130;-2.040;2022-08-19T09:26:09;6.95;;;2.05;;
61397;SDS011;47267;48.130;-2.040;2022-08-19T09:28:39;3.07;;;1.47;;
61397;SDS011;47267;48.130;-2.040;2022-08-19T09:31:09;8.93;;;1.70;;
61397;SDS011;47267;48.130;-2.040;2022-08-19T09:33:36;4.47;;;1.73;;
61397;SDS011;47267;48.130;-2.040;2022-08-19T09:36:05;5.53;;;1.45;;
61397;SDS011;47267;48.130;-2.040;2022-08-19T09:38:33;2.88;;;1.33;;
61397;SDS011;47267;48.130;-2.040;2022-08-19T09:41:06;5.53;;;1.45;;
61397;SDS011;47267;48.130;-2.040;2022-08-19T09:43:37;2.72;;;1.40;;
61397;SDS011;47267;48.130;-2.040;2022-08-19T09:46:03;6.10;;;1.70;;
61397;SDS011;47267;48.130;-2.040;2022-08-19T09:48:36;4.90;;;1.40;;
61397;SDS011;47267;48.130;-2.040;2022-08-19T09:51:08;4.75;;;1.30;;
61397;SDS011;47267;48.130;-2.040;2022-08-19T09:53:35;5.38;;;2.00;;
61397;SDS011;47267;48.130;-2.040;2022-08-19T09:56:03;9.75;;;3.17;;
61397;SDS011;47267;48.130;-2.040;2022-08-19T09:58:31;9.05;;;3.70;;
61397;SDS011;47267;48.130;-2.040;2022-08-19T10:00:58;10.43;;;4.00;;
61397;SDS011;47267;48.130;-2.040;2022-08-19T10:03:26;7.25;;;4.10;;
61397;SDS011;47267;48.130;-2.040;2022-08-19T10:05:54;7.57;;;3.88;;
61397;SDS011;47267;48.130;-2.040;2022-08-19T10:08:23;7.20;;;3.83;;
61397;SDS011;47267;48.130;-2.040;2022-08-19T10:10:51;8.10;;;3.80;;
61397;SDS011;47267;48.130;-2.040;2022-08-19T10:13:18;11.48;;;3.80;;
61397;SDS011;47267;48.130;-2.040;2022-08-19T10:18:18;5.50;;;3.38;;
61397;SDS011;47267;48.130;-2.040;2022-08-19T10:20:46;8.63;;;3.47;;
61397;SDS011;47267;48.130;-2.040;2022-08-19T10:23:13;10.02;;;3.00;;
61397;SDS011;47267;48.130;-2.040;2022-08-19T10:25:42;9.80;;;3.00;;
61397;SDS011;47267;48.130;-2.040;2022-08-19T10:28:08;7.30;;;3.25;;
61397;SDS011;47267;48.130;-2.040;2022-08-19T10:30:37;7.18;;;2.92;;
61397;SDS011;47267;48.130;-2.040;2022-08-19T10:33:04;5.88;;;2.55;;
61397;SDS011;47267;48.130;-2.040;2022-08-19T10:35:30;5.53;;;2.53;;
61397;SDS011;47267;48.130;-2.040;2022-08-19T10:37:57;5.45;;;2.83;;
61397;SDS011;47267;48.130;-2.040;2022-08-19T10:40:24;5.40;;;2.20;;
61397;SDS011;47267;48.130;-2.040;2022-08-19T10:42:51;7.10;;;2.53;;
61397;SDS011;47267;48.130;-2.040;2022-08-19T10:45:17;6.10;;;2.35;;
61397;SDS011;47267;48.130;-2.040;2022-08-19T10:47:43;6.03;;;2.42;;
61397;SDS011;47267;48.130;-2.040;2022-08-19T10:50:09;6.75;;;2.35;;
61397;SDS011;47267;48.130;-2.040;2022-08-19T10:52:53;6.55;;;2.05;;
61397;SDS011;47267;48.130;-2.040;2022-08-19T10:55:22;4.63;;;1.95;;
61397;SDS011;47267;48.130;-2.040;2022-08-19T10:58:16;3.40;;;1.70;;
61397;SDS011;47267;48.130;-2.040;2022-08-19T11:00:56;3.33;;;1.67;;
61397;SDS011;47267;48.130;-2.040;2022-08-19T11:03:23;5.13;;;1.70;;
61397;SDS011;47267;48.130;-2.040;2022-08-19T11:05:57;6.97;;;2.40;;
61397;SDS011;47267;48.130;-2.040;2022-08-19T11:08:24;4.63;;;1.80;;
61397;SDS011;47267;48.130;-2.040;2022-08-19T11:10:52;4.13;;;1.80;;
61397;SDS011;47267;48.130;-2.040;2022-08-19T11:13:20;4.72;;;1.95;;
61397;SDS011;47267;48.130;-2.040;2022-08-19T11:15:47;4.30;;;1.77;;
61397;SDS011;47267;48.130;-2.040;2022-08-19T11:18:25;5.00;;;1.90;;
61397;SDS011;47267;48.130;-2.040;2022-08-19T11:20:51;4.32;;;1.70;;
61397;SDS011;47267;48.130;-2.040;2022-08-19T11:23:17;5.45;;;1.60;;
61397;SDS011;47267;48.130;-2.040;2022-08-19T11:25:43;2.70;;;1.40;;
61397;SDS011;47267;48.130;-2.040;2022-08-19T11:28:10;3.97;;;1.60;;
61397;SDS011;47267;48.130;-2.040;2022-08-19T11:30:37;3.50;;;1.55;;
61397;SDS011;47267;48.130;-2.040;2022-08-19T11:33:03;4.22;;;1.55;;
61397;SDS011;47267;48.130;-2.040;2022-08-19T11:35:29;5.18;;;1.25;;
61397;SDS011;47267;48.130;-2.040;2022-08-19T11:37:55;2.90;;;1.50;;
61397;SDS011;47267;48.130;-2.040;2022-08-19T11:42:52;2.35;;;1.15;;
61397;SDS011;47267;48.130;-2.040;2022-08-19T11:45:21;4.03;;;1.30;;
61397;SDS011;47267;48.130;-2.040;2022-08-19T11:47:51;2.65;;;1.38;;
61397;SDS011;47267;48.130;-2.040;2022-08-19T11:50:18;3.67;;;1.10;;
61397;SDS011;47267;48.130;-2.040;2022-08-19T11:52:44;3.78;;;1.02;;
61397;SDS011;47267;48.130;-2.040;2022-08-19T11:55:11;3.85;;;1.10;;
61397;SDS011;47267;48.130;-2.040;2022-08-19T11:57:40;1.67;;;0.95;;
61397;SDS011;47267;48.130;-2.040;2022-08-19T12:00:06;2.83;;;1.17;;
61397;SDS011;47267;48.130;-2.040;2022-08-19T12:02:33;1.75;;;0.90;;
61397;SDS011;47267;48.130;-2.040;2022-08-19T12:04:59;2.65;;;0.88;;
61397;SDS011;47267;48.130;-2.040;2022-08-19T12:07:29;2.15;;;0.90;;
61397;SDS011;47267;48.130;-2.040;2022-08-19T12:09:58;1.98;;;1.10;;
61397;SDS011;47267;48.130;-2.040;2022-08-19T12:12:24;2.40;;;0.90;;
61397;SDS011;47267;48.130;-2.040;2022-08-19T12:14:51;1.80;;;0.85;;
61397;SDS011;47267;48.130;-2.040;2022-08-19T12:17:22;3.15;;;0.95;;
61397;SDS011;47267;48.130;-2.040;2022-08-19T12:19:49;3.63;;;0.95;;
61397;SDS011;47267;48.130;-2.040;2022-08-19T12:22:14;1.98;;;0.80;;
61397;SDS011;47267;48.130;-2.040;2022-08-19T12:24:40;1.88;;;0.75;;
61397;SDS011;47267;48.130;-2.040;2022-08-19T12:27:06;2.67;;;0.80;;
61397;SDS011;47267;48.130;-2.040;2022-08-19T12:29:32;1.10;;;0.70;;
61397;SDS011;47267;48.130;-2.040;2022-08-19T12:31:58;1.83;;;0.77;;
61397;SDS011;47267;48.130;-2.040;2022-08-19T12:34:29;1.48;;;0.80;;
61397;SDS011;47267;48.130;-2.040;2022-08-19T12:36:57;1.30;;;0.60;;
61397;SDS011;47267;48.130;-2.040;2022-08-19T12:39:23;1.65;;;0.80;;
61397;SDS011;47267;48.130;-2.040;2022-08-19T12:41:50;1.60;;;0.80;;
61397;SDS011;47267;48.130;-2.040;2022-08-19T12:44:16;2.53;;;0.77;;
61397;SDS011;47267;48.130;-2.040;2022-08-19T12:46:42;2.33;;;0.93;;
61397;SDS011;47267;48.130;-2.040;2022-08-19T12:49:07;1.77;;;0.80;;
61397;SDS011;47267;48.130;-2.040;2022-08-19T12:51:33;1.58;;;0.60;;
61397;SDS011;47267;48.130;-2.040;2022-08-19T12:53:59;1.80;;;0.73;;
61397;SDS011;47267;48.130;-2.040;2022-08-19T12:56:26;2.10;;;0.80;;
61397;SDS011;47267;48.130;-2.040;2022-08-19T12:58:52;2.63;;;0.70;;
61397;SDS011;47267;48.130;-2.040;2022-08-19T13:01:18;2.25;;;0.95;;
61397;SDS011;47267;48.130;-2.040;2022-08-19T13:03:45;2.67;;;0.60;;
61397;SDS011;47267;48.130;-2.040;2022-08-19T13:06:11;2.33;;;0.70;;
61397;SDS011;47267;48.130;-2.040;2022-08-19T13:08:38;2.40;;;0.95;;
61397;SDS011;47267;48.130;-2.040;2022-08-19T13:11:09;1.98;;;0.85;;
61397;SDS011;47267;48.130;-2.040;2022-08-19T13:13:38;2.50;;;0.90;;
61397;SDS011;47267;48.130;-2.040;2022-08-19T13:16:06;2.88;;;0.70;;
61397;SDS011;47267;48.130;-2.040;2022-08-19T13:18:33;2.25;;;0.70;;
61397;SDS011;47267;48.130;-2.040;2022-08-19T13:21:03;3.25;;;0.82;;
61397;SDS011;47267;48.130;-2.040;2022-08-19T13:23:33;2.72;;;0.80;;
61397;SDS011;47267;48.130;-2.040;2022-08-19T13:26:01;2.40;;;0.80;;
61397;SDS011;47267;48.130;-2.040;2022-08-19T13:28:30;4.65;;;0.93;;
61397;SDS011;47267;48.130;-2.040;2022-08-19T13:31:17;2.72;;;0.93;;
61397;SDS011;47267;48.130;-2.040;2022-08-19T13:34:02;6.10;;;0.90;;
61397;SDS011;47267;48.130;-2.040;2022-08-19T13:36:35;3.53;;;0.65;;
61397;SDS011;47267;48.130;-2.040;2022-08-19T13:39:02;3.67;;;0.70;;
61397;SDS011;47267;48.130;-2.040;2022-08-19T13:41:28;3.33;;;0.65;;
61397;SDS011;47267;48.130;-2.040;2022-08-19T13:43:55;4.18;;;0.90;;
61397;SDS011;47267;48.130;-2.040;2022-08-19T13:46:21;4.22;;;0.70;;
61397;SDS011;47267;48.130;-2.040;2022-08-19T13:48:48;2.80;;;0.85;;
61397;SDS011;47267;48.130;-2.040;2022-08-19T13:51:15;3.03;;;0.88;;
61397;SDS011;47267;48.130;-2.040;2022-08-19T13:53:43;3.75;;;0.77;;
61397;SDS011;47267;48.130;-2.040;2022-08-19T13:56:10;1.23;;;0.63;;
61397;SDS011;47267;48.130;-2.040;2022-08-19T13:58:38;5.35;;;0.80;;
61397;SDS011;47267;48.130;-2.040;2022-08-19T14:01:04;2.78;;;0.80;;
61397;SDS011;47267;48.130;-2.040;2022-08-19T14:03:31;1.48;;;0.68;;
61397;SDS011;47267;48.130;-2.040;2022-08-19T14:05:57;1.05;;;0.60;;
61397;SDS011;47267;48.130;-2.040;2022-08-19T14:08:24;2.60;;;0.70;;
61397;SDS011;47267;48.130;-2.040;2022-08-19T14:10:52;2.35;;;0.65;;
61397;SDS011;47267;48.130;-2.040;2022-08-19T14:13:21;2.42;;;0.70;;
61397;SDS011;47267;48.130;-2.040;2022-08-19T14:15:48;3.45;;;0.55;;
61397;SDS011;47267;48.130;-2.040;2022-08-19T14:18:16;2.05;;;0.63;;
61397;SDS011;47267;48.130;-2.040;2022-08-19T14:20:43;3.17;;;0.80;;
61397;SDS011;47267;48.130;-2.040;2022-08-19T14:23:09;3.83;;;0.70;;
61397;SDS011;47267;48.130;-2.040;2022-08-19T14:25:37;3.72;;;0.68;;
61397;SDS011;47267;48.130;-2.040;2022-08-19T14:28:03;4.28;;;0.95;;
61397;SDS011;47267;48.130;-2.040;2022-08-19T14:30:31;5.68;;;1.13;;
61397;SDS011;47267;48.130;-2.040;2022-08-19T14:32:59;3.40;;;0.90;;
61397;SDS011;47267;48.130;-2.040;2022-08-19T14:35:28;3.00;;;0.90;;
61397;SDS011;47267;48.130;-2.040;2022-08-19T14:37:55;3.83;;;0.77;;
61397;SDS011;47267;48.130;-2.040;2022-08-19T14:40:23;5.55;;;0.88;;
61397;SDS011;47267;48.130;-2.040;2022-08-19T14:42:53;3.00;;;0.73;;
61397;SDS011;47267;48.130;-2.040;2022-08-19T14:45:24;2.20;;;0.85;;
61397;SDS011;47267;48.130;-2.040;2022-08-19T14:47:52;2.05;;;0.70;;
61397;SDS011;47267;48.130;-2.040;2022-08-19T14:50:18;4.95;;;1.00;;
61397;SDS011;47267;48.130;-2.040;2022-08-19T14:52:48;7.22;;;0.80;;